createdAt,value
2019-02-21T04:28:31.112Z,11.30
2019-02-21T04:31:01.431Z,10.60
2019-02-21T04:33:43.227Z,10.73
2019-02-21T04:36:25.650Z,10.73
2019-02-21T04:39:07.747Z,11.23
2019-02-21T04:41:50.015Z,12.00
2019-02-21T04:44:32.832Z,11.47
2019-02-21T04:47:16.598Z,12.23
2019-02-21T04:49:59.152Z,11.83
2019-02-21T04:52:40.680Z,11.60
2019-02-21T04:55:22.575Z,12.80
2019-02-21T04:58:04.491Z,13.37
2019-02-21T05:00:46.325Z,13.60
2019-02-21T05:03:28.157Z,13.00
2019-02-21T05:06:10.346Z,12.53
2019-02-21T05:08:52.390Z,12.97
2019-02-21T05:11:34.374Z,11.83
2019-02-21T05:14:16.762Z,12.47
2019-02-21T05:17:00.735Z,13.30
2019-02-21T05:19:42.655Z,12.73
2019-02-21T05:22:24.692Z,11.63
2019-02-21T05:25:06.512Z,11.20
2019-02-21T05:28:07.509Z,11.10
2019-02-21T05:30:50.838Z,10.90
2019-02-21T05:33:51.939Z,12.13
2019-02-21T05:36:44.766Z,12.93
2019-02-21T05:39:45.330Z,13.27
2019-02-21T05:42:46.307Z,11.07
2019-02-21T05:45:47.208Z,10.30
2019-02-21T05:48:40.539Z,13.40
2019-02-21T05:51:33.745Z,11.00
2019-02-21T05:54:34.482Z,11.63
2019-02-21T05:57:26.611Z,11.43
2019-02-21T06:00:30.273Z,11.47
2019-02-21T06:03:35.901Z,11.70
2019-02-21T06:06:41.814Z,12.70
2019-02-21T06:09:42.853Z,13.87
2019-02-21T06:12:33.928Z,13.40
2019-02-21T06:15:38.982Z,14.80
2019-02-21T06:18:42.833Z,14.63
2019-02-21T06:21:39.867Z,14.57
2019-02-21T06:24:32.990Z,15.23
2019-02-21T06:27:34.650Z,14.57
2019-02-21T06:30:39.863Z,13.67
2019-02-21T06:33:10.158Z,13.97
2019-02-21T06:35:55.592Z,13.13
2019-02-21T06:38:37.555Z,12.97
2019-02-21T06:41:20.007Z,13.20
2019-02-21T06:44:02.666Z,13.70
2019-02-21T06:46:44.244Z,13.57
2019-02-21T06:49:32.609Z,13.43
2019-02-21T06:52:09.761Z,13.57
2019-02-21T06:54:51.922Z,13.50
2019-02-21T06:57:33.988Z,13.60
2019-02-21T07:00:15.934Z,15.03
2019-02-21T07:02:57.945Z,14.93
2019-02-21T07:05:40.139Z,15.13
2019-02-21T07:08:24.467Z,14.27
2019-02-21T07:11:06.723Z,15.27
2019-02-21T07:13:48.830Z,15.23
2019-02-21T07:16:31.207Z,13.47
2019-02-21T07:19:13.340Z,14.33
2019-02-21T07:21:55.658Z,14.63
2019-02-21T07:24:39.807Z,14.50
2019-02-21T07:27:21.955Z,14.10
2019-02-21T07:30:04.145Z,13.57
2019-02-21T07:32:47.059Z,14.13
2019-02-21T07:35:28.626Z,13.73
2019-02-21T07:38:10.969Z,13.57
2019-02-21T07:40:52.946Z,13.87
2019-02-21T07:43:34.974Z,14.40
2019-02-21T07:46:17.391Z,14.97
2019-02-21T07:48:59.436Z,14.63
2019-02-21T07:51:41.646Z,14.73
2019-02-21T07:54:23.780Z,15.20
2019-02-21T07:57:08.473Z,14.10
2019-02-21T07:59:49.758Z,13.90
2019-02-21T08:02:32.498Z,15.73
2019-02-21T08:05:14.677Z,14.50
2019-02-21T08:07:57.000Z,15.50
2019-02-21T08:10:39.333Z,14.10
2019-02-21T08:13:21.215Z,14.13
2019-02-21T08:16:03.575Z,14.80
2019-02-21T08:18:46.031Z,13.60
2019-02-21T08:21:28.310Z,13.73
2019-02-21T08:24:11.660Z,14.23
2019-02-21T08:26:53.881Z,13.70
2019-02-21T08:29:35.825Z,14.70
2019-02-21T08:32:20.885Z,15.03
2019-02-21T08:35:03.245Z,15.20
2019-02-21T08:37:45.662Z,14.47
2019-02-21T08:40:26.157Z,14.70
2019-02-21T08:43:08.248Z,13.70
2019-02-21T08:45:51.921Z,13.73
2019-02-21T08:48:34.431Z,15.67
2019-02-21T08:51:18.443Z,14.53
2019-02-21T08:54:00.324Z,13.87
2019-02-21T08:56:42.545Z,14.53
2019-02-21T08:59:24.761Z,14.47
2019-02-21T09:02:06.973Z,16.00
2019-02-21T09:04:37.932Z,15.70
2019-02-21T09:07:21.304Z,15.13
2019-02-21T09:10:03.800Z,19.07
2019-02-21T09:12:48.497Z,15.80
2019-02-21T09:15:31.878Z,14.47
2019-02-21T09:18:13.842Z,15.10
2019-02-21T09:20:55.723Z,14.60
2019-02-21T09:23:38.021Z,14.87
2019-02-21T09:26:21.743Z,14.37
2019-02-21T09:29:06.227Z,14.20
2019-02-21T09:31:48.244Z,14.97
2019-02-21T09:34:30.891Z,15.40
2019-02-21T09:37:13.004Z,15.07
2019-02-21T09:39:55.443Z,15.83
2019-02-21T09:42:37.450Z,15.23
2019-02-21T09:45:19.433Z,16.37
2019-02-21T09:48:01.555Z,16.70
2019-02-21T09:50:44.587Z,15.50
2019-02-21T09:53:26.837Z,16.17
2019-02-21T09:56:08.612Z,16.23
2019-02-21T09:58:50.881Z,16.70
2019-02-21T10:01:32.842Z,16.33
2019-02-21T10:04:15.129Z,16.23
2019-02-21T10:06:57.452Z,17.33
2019-02-21T10:09:39.556Z,16.00
2019-02-21T10:12:21.996Z,17.17
2019-02-21T10:15:03.955Z,16.70
2019-02-21T10:17:46.536Z,16.13
2019-02-21T10:20:28.829Z,17.13
2019-02-21T10:23:11.076Z,17.10
2019-02-21T10:25:53.381Z,18.07
2019-02-21T10:28:36.005Z,17.47
2019-02-21T10:31:18.845Z,17.50
2019-02-21T10:34:03.260Z,17.10
2019-02-21T10:36:46.075Z,18.17
2019-02-21T10:39:17.611Z,18.23
2019-02-21T10:42:06.997Z,19.50
2019-02-21T10:44:49.014Z,19.03
2019-02-21T10:47:31.343Z,19.03
2019-02-21T10:50:14.449Z,19.30
2019-02-21T10:52:57.332Z,19.40
2019-02-21T10:55:39.586Z,18.63
2019-02-21T10:58:22.037Z,18.50
2019-02-21T11:01:03.703Z,18.90
2019-02-21T11:03:45.963Z,19.27
2019-02-21T11:06:28.831Z,17.93
2019-02-21T11:09:13.971Z,17.97
2019-02-21T11:11:55.992Z,16.80
2019-02-21T11:14:47.200Z,18.33
2019-02-21T11:17:21.675Z,17.80
2019-02-21T11:20:04.242Z,18.37
2019-02-21T11:22:47.241Z,18.33
2019-02-21T11:25:29.682Z,18.00
2019-02-21T11:28:11.926Z,17.97
2019-02-21T11:30:53.817Z,18.17
2019-02-21T11:33:35.913Z,18.43
2019-02-21T11:36:18.300Z,18.70
2019-02-21T11:38:59.799Z,17.93
2019-02-21T11:41:41.732Z,19.47
2019-02-21T11:44:23.334Z,18.13
2019-02-21T11:47:05.118Z,18.70
2019-02-21T11:49:47.187Z,17.93
2019-02-21T11:52:28.989Z,19.33
2019-02-21T11:55:10.934Z,17.80
2019-02-21T11:57:53.264Z,18.47
2019-02-21T12:00:35.353Z,17.90
2019-02-21T12:03:17.448Z,18.37
2019-02-21T12:05:59.548Z,18.87
2019-02-21T12:08:41.260Z,20.20
2019-02-21T12:11:23.451Z,18.83
2019-02-21T12:14:05.890Z,18.43
2019-02-21T12:16:47.943Z,19.43
2019-02-21T12:19:29.753Z,19.30
2019-02-21T12:22:11.810Z,19.27
2019-02-21T12:24:57.588Z,19.83
2019-02-21T12:27:39.285Z,19.03
2019-02-21T12:30:21.074Z,18.57
2019-02-21T12:32:56.153Z,19.17
2019-02-21T12:35:47.644Z,18.13
2019-02-21T12:38:31.615Z,18.93
2019-02-21T12:41:13.782Z,19.57
2019-02-21T12:43:57.430Z,19.27
2019-02-21T12:46:39.914Z,19.20
2019-02-21T12:49:21.989Z,18.83
2019-02-21T12:52:03.909Z,18.93
2019-02-21T12:54:34.206Z,19.93
2019-02-21T12:57:23.750Z,19.10
2019-02-21T13:00:06.058Z,21.40
2019-02-21T13:02:48.583Z,20.37
2019-02-21T13:05:40.615Z,19.90
2019-02-21T13:08:14.811Z,20.70
2019-02-21T13:10:56.607Z,19.73
2019-02-21T13:13:38.480Z,19.67
2019-02-21T13:16:20.550Z,20.57
2019-02-21T13:19:02.718Z,20.50
2019-02-21T13:21:44.857Z,20.07
2019-02-21T13:27:07.960Z,20.80
2019-02-21T13:29:49.955Z,20.13
2019-02-21T13:32:32.286Z,20.87
2019-02-21T13:35:14.037Z,21.63
2019-02-21T13:37:55.817Z,21.30
2019-02-21T13:40:37.818Z,20.97
2019-02-21T13:43:19.661Z,20.33
2019-02-21T13:46:02.042Z,20.80
2019-02-21T13:48:44.225Z,19.70
2019-02-21T13:51:26.341Z,21.17
2019-02-21T13:54:08.519Z,21.60
2019-02-21T13:56:50.544Z,20.60
2019-02-21T13:59:35.057Z,20.30
2019-02-21T14:02:17.269Z,20.40
2019-02-21T14:04:59.338Z,20.63
2019-02-21T14:07:41.581Z,20.23
2019-02-21T14:10:23.648Z,21.10
2019-02-21T14:13:06.033Z,19.60
2019-02-21T14:15:48.630Z,20.33
2019-02-21T14:18:30.828Z,20.70
2019-02-21T14:21:01.547Z,21.97
2019-02-21T14:23:43.854Z,21.77
2019-02-21T14:26:25.620Z,19.90
2019-02-21T14:29:09.847Z,22.17
2019-02-21T14:31:52.298Z,20.93
2019-02-21T14:34:34.519Z,20.63
2019-02-21T14:37:16.200Z,20.53
2019-02-21T14:39:58.556Z,19.13
2019-02-21T14:42:45.130Z,17.90
2019-02-21T14:45:28.744Z,17.80
2019-02-21T14:48:11.719Z,19.42
2019-02-21T14:50:54.368Z,20.90
2019-02-21T14:53:36.214Z,19.98
2019-02-21T14:56:20.045Z,20.88
2019-02-21T14:59:05.905Z,19.42
2019-02-21T15:01:48.620Z,18.98
2019-02-21T15:04:31.362Z,18.23
2019-02-21T15:07:15.519Z,18.70
2019-02-21T15:09:47.808Z,17.92
2019-02-21T15:15:52.040Z,21.57
2019-02-21T15:18:36.913Z,22.10
2019-02-21T15:21:21.132Z,20.00
2019-02-21T15:24:04.183Z,20.93
2019-02-21T15:26:47.005Z,21.77
2019-02-21T15:29:32.109Z,21.10
2019-02-21T15:32:14.575Z,20.70
2019-02-21T15:34:57.745Z,20.73
2019-02-21T15:37:40.979Z,20.63
2019-02-21T15:40:25.022Z,21.57
2019-02-21T15:43:07.551Z,21.73
2019-02-21T15:45:50.421Z,22.37
2019-02-21T15:48:32.625Z,23.53
2019-02-21T15:51:15.997Z,21.80
2019-02-21T15:53:58.659Z,19.77
2019-02-21T15:56:41.248Z,20.27
2019-02-21T15:59:22.630Z,20.60
2019-02-21T16:02:04.934Z,19.87
2019-02-21T16:04:47.648Z,21.40
2019-02-21T16:07:29.830Z,21.23
2019-02-21T16:10:12.038Z,20.93
2019-02-21T16:12:53.881Z,20.33
2019-02-21T16:15:36.302Z,19.40
2019-02-21T16:18:18.036Z,19.60
2019-02-21T16:21:00.159Z,20.40
2019-02-21T16:23:42.146Z,18.80
2019-02-21T16:26:25.576Z,18.70
2019-02-21T16:29:08.499Z,19.20
2019-02-21T16:31:53.223Z,18.90
2019-02-21T16:34:35.555Z,18.43
2019-02-21T16:37:19.057Z,17.87
2019-02-21T16:40:01.213Z,17.90
2019-02-21T16:42:42.954Z,18.20
2019-02-21T16:45:14.809Z,18.03
2019-02-21T16:47:57.332Z,18.90
2019-02-21T16:50:39.399Z,19.40
2019-02-21T16:53:21.696Z,19.23
2019-02-21T16:55:52.418Z,20.03
2019-02-21T16:58:34.037Z,21.37
2019-02-21T17:01:17.739Z,22.57
2019-02-21T17:04:00.263Z,22.40
2019-02-21T17:06:42.806Z,21.13
2019-02-21T17:09:24.946Z,21.07
2019-02-21T17:12:06.798Z,21.23
2019-02-21T17:14:56.537Z,21.97
2019-02-21T17:18:03.569Z,23.83
2019-02-21T17:20:36.930Z,24.43
2019-02-21T17:24:37.015Z,24.53
2019-02-21T17:26:23.682Z,25.13
2019-02-21T17:29:03.933Z,25.80
2019-02-21T17:32:11.634Z,24.80
2019-02-21T17:34:35.377Z,24.10
2019-02-21T17:37:24.876Z,23.73
2019-02-21T17:40:05.132Z,22.97
2019-02-21T17:42:47.600Z,23.30
2019-02-21T17:45:32.680Z,22.87
2019-02-21T17:52:19.213Z,27.40
2019-02-21T17:53:53.241Z,27.47
2019-02-21T17:59:27.590Z,31.47
2019-02-21T18:02:11.437Z,31.67
2019-02-21T18:13:54.540Z,27.60
2019-02-21T18:16:36.992Z,27.93
2019-02-21T18:22:13.686Z,26.40
2019-02-21T18:24:55.333Z,24.80
2019-02-21T18:27:37.658Z,25.33
2019-02-21T18:30:19.790Z,23.87
2019-02-21T18:33:01.731Z,24.73
2019-02-21T18:35:46.567Z,21.53
2019-02-21T18:38:28.309Z,23.53
2019-02-21T18:41:10.546Z,22.93
2019-02-21T18:43:53.517Z,23.50
2019-02-21T18:46:35.513Z,22.93
2019-02-21T18:49:17.874Z,23.07
2019-02-21T18:51:58.716Z,22.97
2019-02-21T18:54:40.895Z,23.37
2019-02-21T18:57:23.183Z,25.60
2019-02-21T19:00:05.011Z,27.43
2019-02-21T19:02:48.702Z,22.30
2019-02-21T19:05:35.886Z,28.73
2019-02-21T19:08:20.853Z,30.80
2019-02-21T19:11:05.226Z,116.37
2019-02-21T19:13:47.660Z,170.57
2019-02-21T19:16:29.826Z,130.13
2019-02-21T19:19:11.832Z,77.60
2019-02-21T19:21:53.764Z,36.70
2019-02-21T19:24:39.234Z,55.17
2019-02-21T19:27:21.340Z,39.87
2019-02-21T19:30:03.821Z,39.57
2019-02-21T19:32:47.415Z,28.47
2019-02-21T19:35:33.120Z,27.47
2019-02-21T19:38:15.017Z,19.70
2019-02-21T19:40:56.895Z,20.83
2019-02-21T19:43:38.487Z,19.37
2019-02-21T19:46:20.594Z,19.93
2019-02-21T19:49:12.985Z,18.93
2019-02-21T19:51:53.578Z,19.93
2019-02-21T19:54:35.993Z,17.63
2019-02-21T19:57:18.098Z,20.37
2019-02-21T20:00:00.235Z,18.73
2019-02-21T20:02:44.795Z,19.97
2019-02-21T20:05:28.899Z,20.40
2019-02-21T20:08:21.110Z,19.63
2019-02-21T20:10:54.523Z,20.87
2019-02-21T20:13:37.180Z,20.57
2019-02-21T20:16:19.702Z,20.13
2019-02-21T20:19:01.564Z,20.53
2019-02-21T20:21:43.597Z,20.07
2019-02-21T20:24:25.694Z,20.80
2019-02-21T20:27:07.684Z,21.07
2019-02-21T20:29:49.987Z,19.60
2019-02-21T20:32:33.604Z,21.00
2019-02-21T20:35:07.022Z,21.13
2019-02-21T20:37:50.360Z,20.20
2019-02-21T20:40:32.759Z,21.37
2019-02-21T20:43:15.348Z,20.83
2019-02-21T20:45:59.960Z,20.00
2019-02-21T20:48:41.665Z,20.70
2019-02-21T20:51:12.379Z,21.53
2019-02-21T20:54:01.924Z,24.27
2019-02-21T20:56:51.123Z,22.53
2019-02-21T20:59:32.995Z,22.07
2019-02-21T21:02:15.767Z,22.03
2019-02-21T21:04:59.001Z,20.60
2019-02-21T21:07:42.101Z,23.20
2019-02-21T21:10:26.808Z,23.73
2019-02-21T21:13:09.349Z,22.93
2019-02-21T21:15:54.445Z,22.83
2019-02-21T21:18:36.028Z,24.07
2019-02-21T21:21:19.630Z,24.50
2019-02-21T21:24:06.831Z,23.00
2019-02-21T21:27:08.774Z,23.30
2019-02-21T21:29:56.840Z,23.97
2019-02-21T21:33:20.327Z,27.03
2019-02-21T21:35:52.097Z,25.63
2019-02-21T21:38:37.834Z,32.30
2019-02-21T21:41:25.148Z,27.90
2019-02-21T21:44:15.094Z,28.80
2019-02-21T21:46:59.565Z,25.07
2019-02-21T21:49:42.389Z,24.90
2019-02-21T21:52:24.936Z,25.53
2019-02-21T21:55:11.591Z,20.20
